Time;durP1;ratioP1;P1;durP2;ratioP2;P2;SDS_P1;SDS_P2;PMS_P1;PMS_P2;Temp;Humidity;BMP_temperature;BMP_pressure;BME280_temperature;BME280_humidity;BME280_pressure;Samples;Min_cycle;Max_cycle;Signal;HPM_P1;HPM_P2
2022/11/08 00:02:40;;;;;;;14.97;8.20;;;8.40;99.90;;;;;;5091819;28;20489;-68
2022/11/08 00:16:05;;;;;;;15.43;7.90;;;8.40;99.90;;;;;;5092279;28;20439;-69
2022/11/08 00:18:32;;;;;;;14.33;8.70;;;8.40;99.90;;;;;;5106376;28;20480;-68
2022/11/08 00:21:01;;;;;;;15.70;8.77;;;8.40;99.90;;;;;;5111998;28;20442;-68
2022/11/08 00:23:28;;;;;;;26.27;8.30;;;8.30;99.90;;;;;;5106574;28;20605;-68
2022/11/08 00:25:55;;;;;;;13.10;7.80;;;8.30;99.90;;;;;;5092653;28;20455;-68
2022/11/08 00:28:23;;;;;;;19.53;7.80;;;8.30;99.90;;;;;;5091587;28;20884;-69
2022/11/08 00:30:49;;;;;;;15.57;7.90;;;8.30;99.90;;;;;;5091422;28;20899;-68
2022/11/08 00:33:16;;;;;;;17.43;7.60;;;8.20;99.90;;;;;;5090699;28;20470;-69
2022/11/08 00:35:43;;;;;;;11.80;7.13;;;8.20;99.90;;;;;;5091563;28;20451;-68
2022/11/08 00:38:09;;;;;;;21.70;7.10;;;8.20;99.90;;;;;;5090905;28;20467;-68
2022/11/08 00:40:36;;;;;;;15.63;9.10;;;8.20;99.90;;;;;;5091589;28;20443;-68
2022/11/08 00:43:03;;;;;;;15.00;7.83;;;8.20;99.90;;;;;;5091243;28;20901;-68
2022/11/08 00:45:31;;;;;;;18.53;8.20;;;8.20;99.90;;;;;;5109589;28;20446;-68
2022/11/08 00:47:57;;;;;;;16.57;7.23;;;8.20;99.90;;;;;;5107198;28;20860;-69
2022/11/08 00:50:24;;;;;;;14.47;7.63;;;8.20;99.90;;;;;;5091051;28;21111;-68
2022/11/08 00:52:51;;;;;;;12.80;8.30;;;8.20;99.90;;;;;;5091583;28;20474;-68
2022/11/08 00:55:17;;;;;;;12.40;7.57;;;8.10;99.90;;;;;;5091415;28;20455;-69
2022/11/08 00:57:44;;;;;;;18.67;7.50;;;8.10;99.90;;;;;;5091765;28;20817;-68
2022/11/08 01:00:12;;;;;;;14.23;7.20;;;8.10;99.90;;;;;;5091108;28;20459;-68
2022/11/08 01:02:40;;;;;;;15.57;7.20;;;8.10;99.90;;;;;;5092274;28;20487;-69
2022/11/08 01:05:07;;;;;;;22.00;8.60;;;8.10;99.90;;;;;;5099191;28;20446;-68
2022/11/08 01:07:34;;;;;;;14.00;7.17;;;8.10;99.90;;;;;;5091701;28;20474;-68
2022/11/08 01:10:01;;;;;;;24.10;8.67;;;8.20;99.90;;;;;;5090676;28;20821;-68
2022/11/08 01:12:27;;;;;;;12.10;7.83;;;8.20;99.90;;;;;;5101422;28;20474;-68
2022/11/08 01:14:54;;;;;;;11.57;7.40;;;8.20;99.90;;;;;;5103664;28;20532;-68
2022/11/08 01:17:20;;;;;;;25.93;7.87;;;8.20;99.90;;;;;;5091280;28;20452;-68
2022/11/08 01:19:49;;;;;;;14.40;7.30;;;8.10;99.90;;;;;;5090753;28;20508;-68
2022/11/08 01:22:15;;;;;;;11.23;6.83;;;8.10;99.90;;;;;;5091069;28;20479;-68
2022/11/08 01:24:42;;;;;;;15.23;7.00;;;8.10;99.90;;;;;;5099257;28;20460;-68
2022/11/08 01:27:09;;;;;;;14.83;7.03;;;8.10;99.90;;;;;;5111360;28;20454;-69
2022/11/08 01:29:35;;;;;;;13.90;6.70;;;8.10;99.90;;;;;;5104730;28;20448;-68
2022/11/08 01:32:02;;;;;;;21.33;7.87;;;8.00;99.90;;;;;;5090616;28;20984;-68
2022/11/08 01:34:29;;;;;;;19.47;6.70;;;8.00;99.90;;;;;;5091105;28;20970;-68
2022/11/08 01:36:57;;;;;;;18.33;7.00;;;8.00;99.90;;;;;;5090694;28;21009;-68
2022/11/08 01:39:23;;;;;;;15.27;7.77;;;7.90;99.90;;;;;;5091304;28;20470;-68
2022/11/08 01:41:50;;;;;;;10.93;7.10;;;7.90;99.90;;;;;;5090651;28;20455;-68
2022/11/08 01:44:17;;;;;;;13.67;7.50;;;7.80;99.90;;;;;;5091515;28;20486;-68
2022/11/08 01:46:47;;;;;;;14.10;7.50;;;7.80;99.90;;;;;;5094562;28;20498;-68
2022/11/08 01:49:37;;;;;;;10.80;6.40;;;7.70;99.90;;;;;;5095951;28;20454;-68
2022/11/08 01:52:19;;;;;;;12.70;6.80;;;7.70;99.90;;;;;;5094228;28;20849;-68
2022/11/08 01:54:59;;;;;;;28.43;9.70;;;7.60;99.90;;;;;;5094235;28;20457;-68
2022/11/08 01:57:30;;;;;;;18.47;6.33;;;7.50;99.90;;;;;;5094180;28;20794;-68
2022/11/08 02:00:00;;;;;;;11.70;6.10;;;7.40;99.90;;;;;;5094129;28;20454;-68
2022/11/08 02:02:27;;;;;;;8.83;5.90;;;7.40;99.90;;;;;;5090443;28;21013;-68
2022/11/08 02:04:55;;;;;;;13.53;6.03;;;7.40;99.90;;;;;;5101202;28;20449;-68
2022/11/08 02:07:24;;;;;;;8.40;6.00;;;7.30;99.90;;;;;;5093976;28;20538;-68
2022/11/08 02:09:50;;;;;;;12.00;5.60;;;7.30;99.90;;;;;;5094531;28;20447;-68
2022/11/08 02:12:21;;;;;;;15.97;6.67;;;7.20;99.90;;;;;;5093578;28;20467;-68
2022/11/08 02:14:48;;;;;;;11.23;6.13;;;7.20;99.90;;;;;;5094104;28;20953;-69
2022/11/08 02:17:15;;;;;;;12.83;6.40;;;7.10;99.90;;;;;;5096397;28;20446;-68
2022/11/08 02:19:44;;;;;;;10.33;5.77;;;7.10;99.90;;;;;;5114657;28;20453;-68
2022/11/08 02:22:20;;;;;;;6.60;5.30;;;7.10;99.90;;;;;;5099481;28;20549;-68
2022/11/08 02:24:48;;;;;;;17.53;6.30;;;7.10;99.90;;;;;;5104690;28;20456;-68
2022/11/08 02:27:15;;;;;;;10.47;6.20;;;7.10;99.90;;;;;;5106151;28;20813;-68
2022/11/08 02:29:42;;;;;;;11.97;5.20;;;7.00;99.90;;;;;;5093876;28;20451;-68
2022/11/08 02:32:10;;;;;;;9.40;6.10;;;7.00;99.90;;;;;;5092752;28;20467;-68
2022/11/08 02:34:40;;;;;;;12.93;5.73;;;6.90;99.90;;;;;;5094059;28;20460;-68
2022/11/08 02:37:07;;;;;;;12.70;5.97;;;6.90;99.90;;;;;;5093464;28;20496;-68
2022/11/08 02:39:34;;;;;;;10.27;5.60;;;6.80;99.90;;;;;;5093693;28;20828;-68
2022/11/08 02:42:02;;;;;;;11.53;5.60;;;6.80;99.90;;;;;;5092820;28;20875;-68
2022/11/08 02:44:29;;;;;;;9.60;5.50;;;6.80;99.90;;;;;;5093794;28;20487;-68
2022/11/08 02:46:56;;;;;;;13.23;5.60;;;6.80;99.90;;;;;;5093698;28;20645;-68
2022/11/08 02:49:22;;;;;;;8.63;5.27;;;6.80;99.90;;;;;;5093417;28;20470;-68
2022/11/08 02:51:52;;;;;;;7.37;5.50;;;6.80;99.90;;;;;;5092950;28;20472;-68
2022/11/08 02:54:19;;;;;;;10.50;5.43;;;6.70;99.90;;;;;;5109116;28;20459;-68
2022/11/08 02:56:45;;;;;;;9.03;5.90;;;6.70;99.90;;;;;;5112858;28;20454;-68
2022/11/08 02:59:13;;;;;;;8.00;5.90;;;6.70;99.90;;;;;;5103874;28;20450;-68
2022/11/08 03:01:40;;;;;;;8.83;6.00;;;6.70;99.90;;;;;;5096487;28;20508;-69
2022/11/08 03:04:07;;;;;;;10.67;6.83;;;6.70;99.90;;;;;;5092648;28;20489;-68
2022/11/08 03:06:34;;;;;;;11.97;7.20;;;6.70;99.90;;;;;;5093138;28;20454;-69
2022/11/08 03:09:00;;;;;;;15.20;7.47;;;6.70;99.90;;;;;;5092847;28;20453;-68
2022/11/08 03:11:27;;;;;;;18.73;7.00;;;6.70;99.90;;;;;;5092535;28;20455;-68
2022/11/08 03:13:54;;;;;;;12.43;7.30;;;6.70;99.90;;;;;;5092924;28;21031;-68
2022/11/08 03:16:22;;;;;;;10.23;7.53;;;6.80;99.90;;;;;;5093197;28;20445;-68
2022/11/08 03:18:49;;;;;;;11.13;7.00;;;6.80;99.90;;;;;;5093767;28;20448;-68
2022/11/08 03:21:15;;;;;;;14.87;7.37;;;6.70;99.90;;;;;;5092731;28;20511;-68
2022/11/08 03:23:42;;;;;;;22.60;8.67;;;6.70;99.90;;;;;;5091874;28;20485;-68
2022/11/08 03:26:09;;;;;;;12.80;7.40;;;6.70;99.90;;;;;;5093073;28;20467;-68
2022/11/08 03:28:36;;;;;;;20.70;8.90;;;6.70;99.90;;;;;;5092793;28;20459;-68
2022/11/08 03:31:02;;;;;;;13.80;8.57;;;6.70;99.90;;;;;;5092077;28;20455;-69
2022/11/08 03:33:30;;;;;;;18.10;8.43;;;6.70;99.90;;;;;;5092491;28;20465;-68
2022/11/08 03:35:57;;;;;;;11.50;7.80;;;6.80;99.90;;;;;;5092436;28;20508;-69
2022/11/08 03:38:24;;;;;;;14.10;8.07;;;6.70;99.90;;;;;;5091950;28;20458;-69
2022/11/08 03:40:50;;;;;;;12.20;7.20;;;6.60;99.90;;;;;;5103375;28;20450;-69
2022/11/08 03:43:17;;;;;;;17.50;9.50;;;6.60;99.90;;;;;;5097775;28;20483;-69
2022/11/08 03:45:45;;;;;;;14.20;9.07;;;6.60;99.90;;;;;;5092342;28;20530;-68
2022/11/08 03:48:12;;;;;;;18.93;8.90;;;6.50;99.90;;;;;;5092398;28;20446;-69
2022/11/08 03:50:40;;;;;;;13.90;9.40;;;6.60;99.90;;;;;;5093192;28;20475;-69
2022/11/08 03:53:06;;;;;;;15.77;9.00;;;6.60;99.90;;;;;;5091942;28;20523;-68
2022/11/08 03:55:33;;;;;;;13.87;8.30;;;6.60;99.90;;;;;;5097028;28;20463;-69
2022/11/08 03:58:00;;;;;;;11.63;7.40;;;6.60;99.90;;;;;;5106109;28;20454;-68
2022/11/08 04:00:28;;;;;;;13.30;8.20;;;6.60;99.90;;;;;;5103953;28;20460;-68
2022/11/08 04:03:01;;;;;;;21.40;8.37;;;6.60;99.90;;;;;;5091997;28;20473;-68
2022/11/08 04:05:27;;;;;;;17.17;8.20;;;6.50;99.90;;;;;;5093933;28;20792;-68
2022/11/08 04:07:55;;;;;;;14.30;7.87;;;6.50;99.90;;;;;;5092243;28;20477;-68
2022/11/08 04:10:22;;;;;;;12.03;8.20;;;6.50;99.90;;;;;;5092179;28;20831;-68
2022/11/08 04:15:33;;;;;;;10.20;7.67;;;6.40;99.90;;;;;;5107001;28;20441;-69
2022/11/08 04:23:34;;;;;;;15.00;7.90;;;6.30;99.90;;;;;;5091828;28;21021;-69
2022/11/08 04:26:03;;;;;;;9.77;7.23;;;6.30;99.90;;;;;;5110556;28;20468;-68
2022/11/08 04:28:31;;;;;;;19.20;8.20;;;6.30;99.90;;;;;;5112413;28;20457;-68
2022/11/08 04:31:00;;;;;;;15.93;8.83;;;6.20;99.90;;;;;;5108961;28;20459;-68
2022/11/08 04:33:27;;;;;;;22.13;10.13;;;6.20;99.90;;;;;;5091582;28;20461;-68
2022/11/08 04:35:53;;;;;;;14.50;8.47;;;6.20;99.90;;;;;;5109379;28;20919;-68
2022/11/08 04:38:20;;;;;;;17.00;8.60;;;6.10;99.90;;;;;;5112189;28;20810;-69
2022/11/08 04:40:49;;;;;;;16.33;8.73;;;6.10;99.90;;;;;;5111535;28;20449;-68
2022/11/08 04:43:15;;;;;;;17.80;9.70;;;6.10;99.90;;;;;;5096946;28;20503;-68
2022/11/08 04:45:42;;;;;;;14.87;8.53;;;6.10;99.90;;;;;;5091830;28;20456;-68
2022/11/08 04:48:10;;;;;;;13.10;8.50;;;6.10;99.90;;;;;;5091264;28;20952;-68
2022/11/08 04:50:36;;;;;;;16.40;9.43;;;6.10;99.90;;;;;;5091053;28;20455;-68
2022/11/08 04:53:03;;;;;;;16.47;9.30;;;6.10;99.90;;;;;;5091255;28;21006;-68
2022/11/08 04:55:30;;;;;;;16.90;9.00;;;6.10;99.90;;;;;;5104667;28;20467;-68
2022/11/08 04:58:00;;;;;;;18.87;9.60;;;6.10;99.90;;;;;;5112068;28;20874;-68
2022/11/08 05:00:27;;;;;;;21.17;9.60;;;6.10;99.90;;;;;;5100501;28;20455;-68
2022/11/08 05:02:54;;;;;;;15.53;8.10;;;6.10;99.90;;;;;;5091182;28;20839;-68
2022/11/08 05:05:21;;;;;;;13.80;9.00;;;6.00;99.90;;;;;;5094750;28;20454;-68
2022/11/08 05:07:48;;;;;;;17.20;8.97;;;6.10;99.90;;;;;;5091255;28;20799;-68
2022/11/08 05:10:15;;;;;;;11.87;7.67;;;6.10;99.90;;;;;;5091405;28;20496;-68
2022/11/08 05:12:42;;;;;;;14.03;7.97;;;6.10;99.90;;;;;;5092142;28;20475;-68
2022/11/08 05:15:11;;;;;;;16.10;8.27;;;6.00;99.90;;;;;;5090888;28;20452;-68
2022/11/08 05:17:38;;;;;;;11.57;8.87;;;6.00;99.90;;;;;;5091074;28;20874;-69
2022/11/08 05:25:45;;;;;;;25.40;10.47;;;6.20;99.90;;;;;;5095696;28;20464;-69
2022/11/08 05:28:12;;;;;;;21.07;10.00;;;6.30;99.90;;;;;;5094870;28;20842;-69
2022/11/08 05:30:40;;;;;;;16.63;10.00;;;6.40;99.90;;;;;;5094466;28;20481;-68
2022/11/08 05:33:06;;;;;;;25.13;11.90;;;6.50;99.90;;;;;;5094791;28;21026;-68
2022/11/08 05:35:33;;;;;;;17.83;10.30;;;6.50;99.90;;;;;;5094553;28;20842;-69
2022/11/08 05:38:00;;;;;;;18.47;10.07;;;6.50;99.90;;;;;;5094435;28;20470;-68
2022/11/08 05:40:27;;;;;;;20.57;11.10;;;6.50;99.90;;;;;;5095008;28;20447;-68
2022/11/08 05:42:54;;;;;;;25.63;10.70;;;6.50;99.90;;;;;;5089171;28;20488;-68
2022/11/08 05:45:21;;;;;;;18.70;10.53;;;6.50;99.90;;;;;;5094314;28;20945;-69
2022/11/08 05:47:49;;;;;;;19.60;10.07;;;6.50;99.90;;;;;;5094549;28;20458;-68
2022/11/08 05:50:16;;;;;;;19.60;9.47;;;6.50;99.90;;;;;;5094859;28;20966;-68
2022/11/08 05:52:42;;;;;;;22.37;10.90;;;6.50;99.90;;;;;;5094071;28;20463;-68
2022/11/08 05:55:09;;;;;;;27.33;13.00;;;6.60;99.90;;;;;;5097701;28;20459;-68
2022/11/08 05:57:36;;;;;;;27.70;12.10;;;6.60;99.90;;;;;;5094239;28;20448;-68
2022/11/08 06:00:03;;;;;;;29.20;14.20;;;6.70;99.90;;;;;;5104117;28;20441;-68
2022/11/08 06:02:31;;;;;;;21.20;11.97;;;6.70;99.90;;;;;;5093649;28;20531;-68
2022/11/08 06:05:01;;;;;;;25.20;12.47;;;6.70;99.90;;;;;;5094236;28;20476;-67
2022/11/08 06:07:27;;;;;;;22.40;12.67;;;6.70;99.90;;;;;;5093251;28;20966;-68
2022/11/08 06:09:54;;;;;;;25.13;11.40;;;6.70;99.90;;;;;;5091998;28;20444;-67
2022/11/08 06:12:21;;;;;;;19.40;11.00;;;6.70;99.90;;;;;;5092736;28;20482;-68
2022/11/08 06:14:47;;;;;;;21.23;11.60;;;6.70;99.90;;;;;;5101067;28;20492;-68
2022/11/08 06:17:14;;;;;;;29.00;11.83;;;6.60;99.90;;;;;;5114521;27;20458;-68
2022/11/08 06:19:41;;;;;;;21.47;12.80;;;6.60;99.90;;;;;;5114323;28;20515;-67
2022/11/08 06:22:09;;;;;;;25.53;12.00;;;6.50;99.90;;;;;;5113681;28;20484;-68
2022/11/08 06:24:35;;;;;;;20.53;11.70;;;6.50;99.90;;;;;;5111644;28;20487;-67
2022/11/08 06:27:02;;;;;;;28.63;11.80;;;6.50;99.90;;;;;;5112285;28;20507;-67
2022/11/08 06:29:29;;;;;;;24.13;12.60;;;6.60;99.90;;;;;;5104012;28;20504;-67
2022/11/08 06:31:57;;;;;;;20.40;12.93;;;6.50;99.90;;;;;;5092130;28;20932;-67
2022/11/08 06:34:24;;;;;;;30.00;12.83;;;6.50;99.90;;;;;;5093633;28;20447;-68
2022/11/08 06:36:51;;;;;;;25.03;11.80;;;6.50;99.90;;;;;;5093628;28;20754;-67
2022/11/08 06:39:19;;;;;;;21.37;11.10;;;6.50;99.90;;;;;;5093450;28;20449;-67
2022/11/08 06:41:46;;;;;;;26.37;12.00;;;6.50;99.90;;;;;;5092954;28;20463;-67
2022/11/08 06:44:12;;;;;;;22.17;11.20;;;6.40;99.90;;;;;;5094709;28;20476;-68
2022/11/08 06:46:39;;;;;;;20.30;10.87;;;6.50;99.90;;;;;;5113668;27;20451;-68
2022/11/08 06:49:06;;;;;;;15.37;9.63;;;6.70;99.90;;;;;;5103748;28;20457;-67
2022/11/08 06:51:32;;;;;;;16.33;9.70;;;6.90;99.90;;;;;;5093454;28;20509;-67
2022/11/08 06:53:59;;;;;;;15.70;9.40;;;7.00;99.90;;;;;;5093256;28;20461;-67
2022/11/08 06:56:27;;;;;;;15.67;7.53;;;7.20;99.90;;;;;;5093281;28;21040;-67
2022/11/08 06:58:54;;;;;;;28.03;9.67;;;7.50;99.90;;;;;;5093041;28;20797;-67
2022/11/08 07:01:20;;;;;;;21.67;8.60;;;7.90;99.90;;;;;;5092616;28;20948;-68
2022/11/08 07:03:47;;;;;;;11.60;6.37;;;8.20;99.90;;;;;;5107353;28;21647;-67
2022/11/08 07:06:14;;;;;;;18.67;7.97;;;8.20;99.90;;;;;;5110500;28;20938;-67
2022/11/08 07:08:40;;;;;;;13.90;7.57;;;8.30;99.90;;;;;;5108023;28;20484;-67
2022/11/08 07:11:08;;;;;;;13.03;7.13;;;8.50;99.90;;;;;;5093083;28;20494;-67
2022/11/08 07:13:36;;;;;;;11.77;6.80;;;8.60;99.90;;;;;;5092790;28;20486;-68
2022/11/08 07:16:03;;;;;;;15.10;7.47;;;8.60;99.90;;;;;;5107044;28;20454;-68
2022/11/08 07:18:30;;;;;;;12.80;7.20;;;8.50;99.90;;;;;;5111434;28;20449;-68
2022/11/08 07:21:00;;;;;;;13.27;7.53;;;8.30;99.90;;;;;;5103311;28;20450;-67
2022/11/08 07:23:26;;;;;;;14.73;6.83;;;8.10;99.90;;;;;;5093418;28;20480;-68
2022/11/08 07:25:53;;;;;;;15.73;7.90;;;8.00;99.90;;;;;;5110554;28;20537;-67
2022/11/08 07:28:20;;;;;;;13.70;8.30;;;7.80;99.90;;;;;;5110590;28;20451;-67
2022/11/08 07:30:49;;;;;;;15.40;8.83;;;7.70;99.90;;;;;;5091873;28;20446;-67
2022/11/08 07:33:17;;;;;;;11.50;7.77;;;7.60;99.90;;;;;;5091970;28;20467;-67
2022/11/08 07:35:46;;;;;;;13.33;8.20;;;7.50;99.90;;;;;;5095895;28;20454;-67
2022/11/08 07:38:12;;;;;;;13.30;7.60;;;7.40;99.90;;;;;;5091495;28;20449;-67
2022/11/08 07:40:39;;;;;;;12.87;7.90;;;7.50;99.90;;;;;;5091367;28;20944;-67
2022/11/08 07:43:06;;;;;;;15.40;8.73;;;7.40;99.90;;;;;;5091655;28;20495;-67
2022/11/08 07:45:32;;;;;;;11.90;7.67;;;7.40;99.90;;;;;;5104042;28;20482;-67
2022/11/08 07:48:02;;;;;;;14.13;7.70;;;7.30;99.90;;;;;;5108289;28;20501;-67
2022/11/08 07:50:29;;;;;;;13.67;8.47;;;7.40;99.90;;;;;;5101801;28;20454;-67
2022/11/08 07:52:57;;;;;;;12.47;7.70;;;7.40;99.90;;;;;;5112164;28;20484;-67
2022/11/08 07:55:23;;;;;;;15.00;9.07;;;7.40;99.90;;;;;;5108470;28;20457;-67
2022/11/08 07:57:50;;;;;;;14.67;8.97;;;7.50;99.90;;;;;;5092332;28;20449;-67
2022/11/08 08:00:18;;;;;;;13.83;8.67;;;7.80;99.90;;;;;;5091952;28;20865;-68
2022/11/08 08:02:44;;;;;;;21.10;8.80;;;8.10;99.90;;;;;;5092398;28;20475;-68
2022/11/08 08:05:12;;;;;;;17.77;9.03;;;8.30;99.90;;;;;;5090092;28;20490;-68
2022/11/08 08:07:39;;;;;;;14.17;7.50;;;8.80;99.90;;;;;;5092248;28;20458;-68
2022/11/08 08:10:06;;;;;;;13.93;8.10;;;9.30;99.90;;;;;;5091940;28;20461;-67
2022/11/08 08:12:33;;;;;;;13.20;8.43;;;9.50;99.90;;;;;;5091457;28;20516;-68
2022/11/08 08:14:59;;;;;;;11.13;7.47;;;9.70;99.90;;;;;;5098419;28;20443;-68
2022/11/08 08:17:26;;;;;;;11.70;6.57;;;9.90;99.90;;;;;;5111441;28;20442;-67
2022/11/08 08:19:53;;;;;;;12.60;6.50;;;10.00;99.90;;;;;;5110995;28;20506;-68
2022/11/08 08:22:21;;;;;;;10.60;5.90;;;10.00;99.90;;;;;;5111922;28;20470;-68
2022/11/08 08:24:47;;;;;;;11.43;6.10;;;10.00;99.90;;;;;;5107133;28;20548;-68
2022/11/08 08:27:14;;;;;;;6.83;5.93;;;10.30;99.90;;;;;;5092715;28;20451;-68
2022/11/08 08:29:41;;;;;;;11.63;7.30;;;10.60;99.90;;;;;;5091344;28;20504;-67
2022/11/08 08:32:07;;;;;;;12.37;6.87;;;10.90;99.90;;;;;;5091651;28;20504;-68
2022/11/08 08:34:34;;;;;;;10.57;5.27;;;11.00;99.90;;;;;;5094884;28;20874;-70
2022/11/08 08:37:01;;;;;;;12.90;6.10;;;11.00;99.90;;;;;;5111987;28;20450;-70
2022/11/08 08:39:29;;;;;;;14.20;6.33;;;11.10;99.90;;;;;;5111759;28;20814;-70
2022/11/08 08:41:56;;;;;;;9.30;6.07;;;11.20;99.90;;;;;;5107408;28;20517;-70
2022/11/08 08:44:22;;;;;;;11.10;6.70;;;11.40;99.90;;;;;;5091925;28;21064;-70
2022/11/08 08:46:49;;;;;;;9.00;6.60;;;11.50;99.90;;;;;;5112064;28;20938;-70
2022/11/08 08:49:16;;;;;;;6.83;5.40;;;11.60;99.90;;;;;;5104400;28;20452;-70
2022/11/08 08:51:42;;;;;;;6.50;5.30;;;11.80;99.90;;;;;;5091112;28;20872;-70
2022/11/08 08:54:10;;;;;;;13.03;4.50;;;12.10;99.90;;;;;;5091234;28;20490;-70
2022/11/08 08:56:38;;;;;;;5.83;4.57;;;12.40;99.90;;;;;;5097611;28;20458;-70
2022/11/08 08:59:05;;;;;;;7.00;4.03;;;12.60;99.90;;;;;;5116392;28;20448;-70
2022/11/08 09:01:31;;;;;;;4.63;3.70;;;12.80;99.90;;;;;;5115777;28;20449;-70
2022/11/08 09:03:58;;;;;;;4.93;4.13;;;12.90;99.90;;;;;;5115903;28;20477;-71
2022/11/08 09:06:25;;;;;;;10.00;4.07;;;12.80;99.90;;;;;;5097499;28;20574;-70
2022/11/08 09:08:51;;;;;;;5.20;3.50;;;12.90;99.90;;;;;;5094979;28;21000;-70
2022/11/08 09:11:18;;;;;;;7.17;3.73;;;13.10;99.90;;;;;;5095226;28;20453;-70
2022/11/08 09:13:46;;;;;;;6.43;3.20;;;13.30;99.90;;;;;;5113050;28;20467;-70
2022/11/08 09:16:13;;;;;;;6.97;3.50;;;13.60;99.90;;;;;;5099648;28;20882;-70
2022/11/08 09:18:40;;;;;;;5.30;3.33;;;13.80;99.90;;;;;;5095022;28;20538;-69
2022/11/08 09:21:06;;;;;;;3.43;3.13;;;13.90;99.90;;;;;;5094610;28;21141;-70
2022/11/08 09:23:33;;;;;;;3.57;3.27;;;13.90;99.90;;;;;;5111907;28;20470;-70
2022/11/08 09:26:02;;;;;;;6.93;3.67;;;13.80;99.90;;;;;;5115195;28;20893;-69
2022/11/08 09:28:30;;;;;;;10.30;4.43;;;13.70;99.90;;;;;;5098146;28;20456;-69
2022/11/08 09:31:01;;;;;;;5.00;3.80;;;13.60;99.90;;;;;;5074369;28;20448;-69
2022/11/08 09:33:28;;;;;;;4.03;3.10;;;13.70;99.90;;;;;;5074445;28;20555;-70
2022/11/08 09:35:54;;;;;;;7.33;3.37;;;13.70;99.90;;;;;;5087708;28;20452;-69
2022/11/08 09:38:21;;;;;;;8.10;3.27;;;13.70;99.90;;;;;;5095011;28;20459;-70
2022/11/08 09:40:57;;;;;;;4.73;3.30;;;13.90;99.90;;;;;;5094540;28;20560;-70
2022/11/08 09:43:38;;;;;;;9.63;3.90;;;14.00;99.90;;;;;;5094583;28;20467;-70
2022/11/08 09:46:10;;;;;;;7.60;3.70;;;14.10;99.90;;;;;;5094483;28;20508;-70
2022/11/08 09:48:40;;;;;;;7.37;4.00;;;13.90;99.90;;;;;;5094678;28;20541;-70
2022/11/08 09:51:12;;;;;;;8.63;4.20;;;13.80;99.90;;;;;;5101820;28;20447;-70
2022/11/08 09:53:48;;;;;;;10.00;4.17;;;13.60;99.90;;;;;;5095694;28;20479;-69
2022/11/08 09:56:20;;;;;;;6.27;4.30;;;13.40;99.90;;;;;;5093936;28;20459;-69
2022/11/08 09:58:53;;;;;;;9.90;4.50;;;13.20;99.90;;;;;;5113316;28;20462;-69
2022/11/08 10:01:22;;;;;;;6.97;4.50;;;12.90;99.90;;;;;;5114341;28;20454;-69
2022/11/08 10:03:52;;;;;;;7.20;4.47;;;12.80;99.90;;;;;;5114728;28;20462;-69
2022/11/08 10:06:47;;;;;;;7.07;4.60;;;12.80;99.90;;;;;;5097368;28;20477;-69
2022/11/08 10:09:27;;;;;;;7.10;4.13;;;12.90;99.90;;;;;;5094386;28;20443;-69
2022/11/08 10:12:08;;;;;;;9.63;4.13;;;13.00;99.90;;;;;;5095951;28;20508;-69
2022/11/08 10:14:43;;;;;;;5.10;3.97;;;13.10;99.90;;;;;;5113529;28;20445;-69
2022/11/08 10:17:25;;;;;;;16.40;4.47;;;13.10;99.90;;;;;;5100154;28;20454;-69
2022/11/08 10:20:02;;;;;;;8.50;4.37;;;13.10;99.90;;;;;;5106315;28;20472;-69
2022/11/08 10:22:36;;;;;;;7.80;4.17;;;13.00;99.90;;;;;;5093539;28;20459;-70
2022/11/08 10:25:11;;;;;;;7.10;4.57;;;13.10;99.90;;;;;;5108708;28;20490;-70
2022/11/08 10:27:41;;;;;;;6.50;4.53;;;13.10;99.90;;;;;;5104235;28;20451;-69
2022/11/08 10:30:17;;;;;;;11.00;4.37;;;12.90;99.90;;;;;;5094000;28;20865;-69
2022/11/08 10:32:50;;;;;;;8.23;4.23;;;12.80;99.90;;;;;;5093381;28;20835;-69
2022/11/08 10:35:21;;;;;;;5.30;4.20;;;12.50;99.90;;;;;;5093578;28;20462;-69
2022/11/08 10:37:50;;;;;;;6.50;4.83;;;12.20;99.90;;;;;;5093873;28;20449;-69
2022/11/08 10:40:26;;;;;;;9.50;5.30;;;12.20;99.90;;;;;;5093634;28;20948;-69
2022/11/08 10:42:58;;;;;;;6.63;4.40;;;12.00;99.90;;;;;;5093356;28;20463;-69
2022/11/08 10:45:25;;;;;;;6.30;5.03;;;11.70;99.90;;;;;;5093575;28;20485;-69
2022/11/08 10:47:54;;;;;;;10.33;5.23;;;11.60;99.90;;;;;;5096790;28;20447;-69
2022/11/08 10:50:30;;;;;;;7.33;5.57;;;11.80;99.90;;;;;;5093744;28;20497;-69
2022/11/08 10:53:00;;;;;;;11.90;5.67;;;12.10;99.90;;;;;;5093135;28;20520;-69
2022/11/08 10:55:32;;;;;;;9.00;5.37;;;12.30;99.90;;;;;;5093537;28;21168;-69
2022/11/08 10:58:00;;;;;;;11.80;6.03;;;12.50;99.90;;;;;;5093380;28;20543;-68
2022/11/08 11:00:29;;;;;;;11.03;5.80;;;12.70;99.90;;;;;;5092715;28;20443;-69
2022/11/08 11:03:00;;;;;;;12.97;6.00;;;12.60;99.90;;;;;;5094307;28;20507;-69
2022/11/08 11:05:33;;;;;;;13.00;6.23;;;12.50;99.90;;;;;;5096784;28;20485;-69
2022/11/08 11:08:03;;;;;;;9.10;5.90;;;12.40;99.90;;;;;;5092857;28;20458;-69
2022/11/08 11:10:33;;;;;;;10.20;6.27;;;12.50;99.90;;;;;;5093381;28;20453;-69
2022/11/08 11:13:04;;;;;;;10.50;6.73;;;12.50;99.90;;;;;;5092242;28;20478;-69
2022/11/08 11:15:33;;;;;;;10.93;6.33;;;12.40;99.90;;;;;;5093137;28;20956;-68
2022/11/08 11:18:02;;;;;;;12.23;6.30;;;12.30;99.90;;;;;;5093324;28;20488;-69
2022/11/08 11:20:30;;;;;;;9.37;5.87;;;12.20;99.90;;;;;;5094718;28;20462;-69
2022/11/08 11:22:59;;;;;;;9.00;5.90;;;12.30;99.90;;;;;;5095873;28;20506;-68
2022/11/08 11:25:26;;;;;;;13.63;6.50;;;12.30;99.90;;;;;;5092347;28;21003;-69
2022/11/08 11:27:56;;;;;;;8.37;5.20;;;12.40;99.90;;;;;;5092627;28;20469;-68
2022/11/08 11:30:29;;;;;;;8.37;6.03;;;12.30;99.90;;;;;;5099102;28;20854;-68
2022/11/08 11:32:59;;;;;;;12.40;6.13;;;12.30;99.90;;;;;;5097190;27;20472;-68
2022/11/08 11:35:34;;;;;;;8.67;5.07;;;12.20;99.90;;;;;;5112686;28;20449;-69
2022/11/08 11:38:03;;;;;;;7.53;4.60;;;12.30;99.90;;;;;;5112696;28;20954;-68
2022/11/08 11:40:36;;;;;;;7.13;5.13;;;12.30;99.90;;;;;;5072223;28;20489;-69
2022/11/08 11:43:10;;;;;;;9.27;3.97;;;12.40;99.90;;;;;;5084766;28;20536;-68
2022/11/08 11:45:43;;;;;;;7.70;4.37;;;12.40;99.90;;;;;;5101251;28;20479;-68
2022/11/08 11:48:16;;;;;;;7.33;4.63;;;12.40;99.90;;;;;;5112420;28;20866;-68
2022/11/08 11:50:48;;;;;;;6.80;4.70;;;12.40;99.90;;;;;;5110626;28;20541;-70
2022/11/08 11:53:20;;;;;;;9.00;4.83;;;12.50;99.90;;;;;;5094592;28;21014;-68
2022/11/08 11:56:00;;;;;;;7.60;4.40;;;12.60;99.90;;;;;;5096505;28;20457;-68
2022/11/08 11:58:46;;;;;;;11.10;4.57;;;12.70;99.90;;;;;;5092180;28;20534;-68
2022/11/08 12:01:23;;;;;;;10.70;5.00;;;12.90;99.90;;;;;;5092065;28;20519;-69
2022/11/08 12:04:08;;;;;;;11.50;4.57;;;12.90;99.90;;;;;;5091758;28;20469;-69
2022/11/08 12:06:45;;;;;;;5.73;4.63;;;12.80;99.90;;;;;;5092011;28;20532;-68
2022/11/08 12:09:27;;;;;;;7.27;5.10;;;12.70;99.90;;;;;;5091790;28;21256;-69
2022/11/08 12:12:06;;;;;;;8.07;5.27;;;12.60;99.90;;;;;;5091852;28;20452;-69
2022/11/08 12:14:44;;;;;;;9.93;5.47;;;12.60;99.90;;;;;;5092000;28;20978;-68
2022/11/08 12:17:27;;;;;;;8.87;5.07;;;12.50;99.90;;;;;;5111865;28;20446;-69
2022/11/08 12:20:06;;;;;;;10.70;5.53;;;12.50;99.90;;;;;;5111544;28;20449;-69
2022/11/08 12:22:48;;;;;;;9.97;5.60;;;12.60;99.90;;;;;;5109611;28;20827;-68
2022/11/08 12:25:23;;;;;;;13.23;4.40;;;12.60;99.90;;;;;;5111758;28;20446;-69
2022/11/08 12:27:52;;;;;;;7.87;5.07;;;12.70;99.90;;;;;;5111856;28;20452;-68
2022/11/08 12:30:21;;;;;;;6.93;5.00;;;12.80;99.90;;;;;;5110763;28;20939;-68
2022/11/08 12:33:21;;;;;;;12.73;4.70;;;12.70;99.90;;;;;;5099105;28;20551;-68
2022/11/08 12:35:58;;;;;;;6.50;4.90;;;12.60;99.90;;;;;;5091596;28;20946;-68
2022/11/08 12:38:34;;;;;;;7.53;4.93;;;12.60;99.90;;;;;;5091637;28;20439;-68
2022/11/08 12:41:11;;;;;;;7.10;4.47;;;12.60;99.90;;;;;;5091282;28;20439;-68
2022/11/08 12:44:20;;;;;;;6.30;4.33;;;12.60;99.90;;;;;;5091288;28;20601;-68
2022/11/08 12:47:03;;;;;;;11.90;4.57;;;12.60;99.90;;;;;;5091337;28;20540;-69
2022/11/08 12:49:39;;;;;;;6.70;4.20;;;12.60;99.90;;;;;;5091915;28;20447;-68
2022/11/08 12:52:18;;;;;;;14.23;4.40;;;12.80;99.90;;;;;;5089929;28;20455;-69
2022/11/08 12:54:51;;;;;;;6.50;4.47;;;12.80;99.90;;;;;;5088784;28;20541;-68
2022/11/08 12:57:26;;;;;;;7.63;4.57;;;12.80;99.90;;;;;;5088632;28;20450;-68
2022/11/08 13:00:00;;;;;;;6.27;3.57;;;12.90;99.90;;;;;;5088299;28;20451;-68
2022/11/08 13:02:30;;;;;;;5.90;4.23;;;12.90;99.90;;;;;;5091282;28;20464;-69
2022/11/08 13:05:03;;;;;;;8.23;4.03;;;12.90;99.90;;;;;;5093340;28;20443;-68
2022/11/08 13:07:38;;;;;;;5.77;4.10;;;13.00;99.90;;;;;;5111265;28;20486;-68
2022/11/08 13:10:12;;;;;;;7.20;4.40;;;13.00;99.90;;;;;;5102306;28;20870;-68
2022/11/08 13:12:58;;;;;;;8.60;4.53;;;13.10;99.90;;;;;;5091102;28;20547;-68
2022/11/08 13:15:27;;;;;;;7.70;4.60;;;13.10;99.90;;;;;;5084576;28;20451;-68
2022/11/08 13:18:22;;;;;;;15.30;4.93;;;13.00;99.90;;;;;;5091331;28;20452;-68
2022/11/08 13:20:50;;;;;;;7.93;4.33;;;13.00;99.90;;;;;;5090661;28;20530;-68
2022/11/08 13:23:25;;;;;;;8.63;4.40;;;13.00;99.90;;;;;;5091189;28;20470;-68